createdAt,value
2019-05-09T00:02:38.337Z,95711.13
2019-05-09T00:05:08.933Z,95712.81
2019-05-09T00:07:39.282Z,95715.81
2019-05-09T00:10:09.242Z,95713.64
2019-05-09T00:12:39.071Z,95711.97
2019-05-09T00:15:08.774Z,95711.97
2019-05-09T00:17:43.824Z,95715.00
2019-05-09T00:20:30.290Z,95703.47
2019-05-09T00:23:03.283Z,95703.47
2019-05-09T00:25:33.978Z,95706.12
2019-05-09T00:28:05.843Z,95710.98
2019-05-09T00:30:56.713Z,95714.66
2019-05-09T00:33:29.055Z,95710.66
2019-05-09T00:35:58.833Z,95712.98
2019-05-09T00:38:43.433Z,95715.98
2019-05-09T00:41:13.950Z,95715.98
2019-05-09T00:43:48.626Z,95717.47
2019-05-09T00:46:23.994Z,95719.82
2019-05-09T00:49:18.856Z,95721.31
2019-05-09T00:51:48.772Z,95726.97
2019-05-09T00:54:20.700Z,95722.97
2019-05-09T00:56:50.862Z,95721.78
2019-05-09T00:59:20.592Z,95720.62
2019-05-09T01:01:50.596Z,95718.59
2019-05-09T01:04:20.407Z,95726.27
2019-05-09T01:06:50.092Z,95711.41
2019-05-09T01:09:20.698Z,95715.05
2019-05-09T01:11:50.423Z,95717.39
2019-05-09T01:14:20.133Z,95717.39
2019-05-09T01:16:49.945Z,95716.02
2019-05-09T01:19:19.750Z,95713.20
2019-05-09T01:21:49.562Z,95715.03
2019-05-09T01:24:19.158Z,95715.50
2019-05-09T01:26:48.795Z,95715.77
2019-05-09T01:29:19.112Z,95715.77
2019-05-09T01:31:49.045Z,95714.92
2019-05-09T01:34:23.964Z,95714.92
2019-05-09T01:37:11.115Z,95716.41
2019-05-09T01:39:40.967Z,95717.41
2019-05-09T01:42:11.187Z,95717.41
2019-05-09T01:44:40.876Z,95720.84
2019-05-09T01:47:11.099Z,95720.66
2019-05-09T01:49:43.132Z,95723.74
2019-05-09T01:52:13.735Z,95723.74
2019-05-09T01:54:45.237Z,95720.39
2019-05-09T01:57:15.282Z,95721.23
2019-05-09T01:59:44.984Z,95721.23
2019-05-09T02:02:15.010Z,95721.83
2019-05-09T02:04:44.871Z,95721.83
2019-05-09T02:07:14.438Z,95720.89
2019-05-09T02:09:45.095Z,95721.72
2019-05-09T02:12:14.842Z,95729.72
2019-05-09T02:14:54.354Z,95729.72
2019-05-09T02:17:58.219Z,95716.89
2019-05-09T02:20:17.418Z,95716.89
2019-05-09T02:22:47.120Z,95717.23
2019-05-09T02:25:16.838Z,95698.59
2019-05-09T02:27:48.156Z,95698.59
2019-05-09T02:30:18.376Z,95712.78
2019-05-09T02:32:48.106Z,95709.77
2019-05-09T02:35:17.748Z,95711.22
2019-05-09T02:37:49.802Z,95710.37
2019-05-09T02:40:19.247Z,95710.37
2019-05-09T02:42:49.224Z,95703.34
2019-05-09T02:45:19.563Z,95703.34
2019-05-09T02:47:49.258Z,95695.58
2019-05-09T02:50:19.705Z,95692.77
2019-05-09T02:52:49.512Z,95692.77
2019-05-09T02:55:19.299Z,95695.92
2019-05-09T02:57:50.807Z,95695.92
2019-05-09T03:00:39.861Z,95692.23
2019-05-09T03:03:19.796Z,95692.23
2019-05-09T03:05:49.487Z,95683.97
2019-05-09T03:08:19.612Z,95683.97
2019-05-09T03:10:49.495Z,95684.73
2019-05-09T03:13:19.462Z,95674.14
2019-05-09T03:15:51.021Z,95674.14
2019-05-09T03:18:21.085Z,95675.48
2019-05-09T03:21:00.564Z,95676.31
2019-05-09T03:23:30.156Z,95679.81
2019-05-09T03:26:00.220Z,95678.64
2019-05-09T03:28:49.218Z,95690.75
2019-05-09T03:31:20.027Z,95690.75
2019-05-09T03:33:50.454Z,95693.17
2019-05-09T03:36:21.302Z,95691.47
2019-05-09T03:38:51.438Z,95691.47
2019-05-09T03:41:21.200Z,95690.48
2019-05-09T03:43:51.009Z,95689.44
2019-05-09T03:46:38.404Z,95689.44
2019-05-09T03:49:08.928Z,95688.11
2019-05-09T03:51:39.182Z,95683.47
2019-05-09T03:54:09.209Z,95680.23
2019-05-09T03:56:42.941Z,95680.23
2019-05-09T03:59:12.822Z,95684.37
2019-05-09T04:01:42.514Z,95679.59
2019-05-09T04:04:12.117Z,95681.06
2019-05-09T04:06:42.225Z,95682.84
2019-05-09T04:09:12.342Z,95682.84
2019-05-09T04:11:42.146Z,95687.37
2019-05-09T04:14:17.562Z,95679.44
2019-05-09T04:16:48.256Z,95676.77
2019-05-09T04:19:18.023Z,95676.77
2019-05-09T04:21:48.637Z,95680.77
2019-05-09T04:24:18.217Z,95694.66
2019-05-09T04:26:53.378Z,95694.66
2019-05-09T04:29:24.125Z,95691.20
2019-05-09T04:31:54.351Z,95687.05
2019-05-09T04:34:23.922Z,95686.52
2019-05-09T04:36:57.442Z,95688.05
2019-05-09T04:39:28.368Z,95681.58
2019-05-09T04:42:03.530Z,95683.97
2019-05-09T04:44:57.490Z,95683.97
2019-05-09T04:47:27.652Z,95691.34
2019-05-09T04:49:58.442Z,95698.00
2019-05-09T04:52:30.418Z,95693.57
2019-05-09T04:55:00.187Z,95693.57
2019-05-09T04:57:31.288Z,95705.35
2019-05-09T05:00:02.461Z,95705.35
2019-05-09T05:02:50.112Z,95705.04
2019-05-09T05:05:20.087Z,95705.04
2019-05-09T05:07:50.253Z,95706.88
2019-05-09T05:10:19.954Z,95706.88
2019-05-09T05:12:50.332Z,95701.13
2019-05-09T05:15:20.725Z,95710.80
2019-05-09T05:17:51.000Z,95708.47
2019-05-09T05:20:23.804Z,95714.02
2019-05-09T05:22:59.489Z,95714.02
2019-05-09T05:25:29.196Z,95706.20
2019-05-09T05:27:58.867Z,95706.20
2019-05-09T05:30:29.252Z,95708.13
2019-05-09T05:33:10.389Z,95704.05
2019-05-09T05:35:47.911Z,95701.91
2019-05-09T05:38:17.734Z,95701.91
2019-05-09T05:40:49.687Z,95702.26
2019-05-09T05:43:18.900Z,95705.79
2019-05-09T05:45:58.785Z,95701.97
2019-05-09T05:48:29.967Z,95701.97
2019-05-09T05:50:59.442Z,95705.96
2019-05-09T05:53:29.170Z,95691.94
2019-05-09T05:55:58.978Z,95695.12
2019-05-09T05:58:29.081Z,95695.12
2019-05-09T06:00:59.130Z,95700.28
2019-05-09T06:03:29.016Z,95703.14
2019-05-09T06:05:59.289Z,95705.46
2019-05-09T06:08:29.005Z,95709.64
2019-05-09T06:10:58.659Z,95709.64
2019-05-09T06:13:28.373Z,95711.31
2019-05-09T06:15:59.095Z,95719.66
2019-05-09T06:18:29.029Z,95714.98
2019-05-09T06:20:58.763Z,95707.97
2019-05-09T06:23:28.545Z,95708.42
2019-05-09T06:25:59.279Z,95708.42
2019-05-09T06:28:37.647Z,95703.63
2019-05-09T06:31:09.953Z,95715.78
2019-05-09T06:33:46.321Z,95717.11
2019-05-09T06:36:11.147Z,95718.25
2019-05-09T06:38:41.007Z,95718.25
2019-05-09T06:41:12.245Z,95715.55
2019-05-09T06:43:44.250Z,95723.62
2019-05-09T06:46:29.456Z,95719.42
2019-05-09T06:49:23.333Z,95717.03
2019-05-09T06:51:35.399Z,95720.11
2019-05-09T06:54:05.493Z,95720.11
2019-05-09T06:56:35.258Z,95716.69
2019-05-09T06:59:07.387Z,95712.88
2019-05-09T07:01:57.975Z,95712.88
2019-05-09T07:04:58.222Z,95715.00
2019-05-09T07:07:53.351Z,95711.78
2019-05-09T07:10:23.711Z,95710.41
2019-05-09T07:12:53.236Z,95710.41
2019-05-09T07:15:23.191Z,95708.80
2019-05-09T07:17:53.777Z,95708.80
2019-05-09T07:20:23.570Z,95700.95
2019-05-09T07:22:58.349Z,95694.27
2019-05-09T07:25:47.838Z,95699.61
2019-05-09T07:28:20.505Z,95699.61
2019-05-09T07:31:21.148Z,95704.57
2019-05-09T07:33:59.478Z,95704.57
2019-05-09T07:36:30.406Z,95704.48
2019-05-09T07:39:01.135Z,95707.52
2019-05-09T07:41:33.764Z,95710.13
2019-05-09T07:44:03.564Z,95710.13
2019-05-09T07:46:34.871Z,95709.77
2019-05-09T07:49:08.631Z,95711.58
2019-05-09T07:51:38.523Z,95712.94
2019-05-09T07:54:20.562Z,95703.86
2019-05-09T07:56:42.197Z,95703.86
2019-05-09T07:59:12.014Z,95708.52
2019-05-09T08:01:45.422Z,95711.27
2019-05-09T08:04:18.222Z,95698.52
2019-05-09T08:06:48.767Z,95698.52
2019-05-09T08:09:18.855Z,95694.14
2019-05-09T08:11:50.150Z,95696.00
2019-05-09T08:14:21.414Z,95697.77
2019-05-09T08:16:54.214Z,95697.77
2019-05-09T08:19:24.414Z,95691.31
2019-05-09T08:21:54.251Z,95689.98
2019-05-09T08:24:24.045Z,95687.70
2019-05-09T08:26:54.085Z,95690.97
2019-05-09T08:29:24.535Z,95690.97
2019-05-09T08:31:58.054Z,95696.57
2019-05-09T08:34:28.486Z,95689.41
2019-05-09T08:36:58.809Z,95688.22
2019-05-09T08:39:28.734Z,95688.22
2019-05-09T08:41:59.462Z,95691.50
2019-05-09T08:44:31.242Z,95680.81
2019-05-09T08:47:01.902Z,95688.97
2019-05-09T08:49:41.823Z,95695.56
2019-05-09T08:52:16.610Z,95687.41
2019-05-09T08:54:51.378Z,95687.92
2019-05-09T08:57:23.855Z,95687.92
2019-05-09T08:59:53.680Z,95690.05
2019-05-09T09:02:23.983Z,95689.95
2019-05-09T09:04:53.801Z,95690.34
2019-05-09T09:07:24.385Z,95693.00
2019-05-09T09:09:53.950Z,95693.00
2019-05-09T09:12:31.328Z,95683.16
2019-05-09T09:14:55.209Z,95674.64
2019-05-09T09:17:25.087Z,95674.64
2019-05-09T09:19:54.750Z,95673.73
2019-05-09T09:22:24.425Z,95670.94
2019-05-09T09:24:54.026Z,95667.47
2019-05-09T09:27:24.023Z,95664.67
2019-05-09T09:29:53.779Z,95670.38
2019-05-09T09:32:23.242Z,95670.38
2019-05-09T09:34:53.293Z,95666.25
2019-05-09T09:37:23.429Z,95661.57
2019-05-09T09:39:53.435Z,95655.92
2019-05-09T09:42:23.923Z,95655.92
2019-05-09T09:44:58.543Z,95657.37
2019-05-09T09:47:28.803Z,95658.47
2019-05-09T09:50:00.530Z,95654.95
2019-05-09T09:52:34.151Z,95654.95
2019-05-09T09:55:01.594Z,95661.34
2019-05-09T09:57:33.356Z,95654.62
2019-05-09T10:00:20.563Z,95663.78
2019-05-09T10:02:50.233Z,95663.78
2019-05-09T10:05:20.882Z,95655.25
2019-05-09T10:07:50.698Z,95654.73
2019-05-09T10:10:34.035Z,95654.73
2019-05-09T10:13:04.308Z,95653.89
2019-05-09T10:15:58.886Z,95653.89
2019-05-09T10:18:57.849Z,95654.92
2019-05-09T10:21:30.886Z,95650.53
2019-05-09T10:24:00.898Z,95652.81
2019-05-09T10:26:30.461Z,95651.41
2019-05-09T10:28:59.937Z,95651.41
2019-05-09T10:31:30.733Z,95642.11
2019-05-09T10:34:00.758Z,95642.11
2019-05-09T10:36:30.670Z,95643.06
2019-05-09T10:39:01.035Z,95645.70
2019-05-09T10:41:31.117Z,95643.09
2019-05-09T10:44:25.300Z,95650.93
2019-05-09T10:47:02.537Z,95650.55
2019-05-09T10:49:32.995Z,95653.02
2019-05-09T10:52:03.764Z,95647.69
2019-05-09T10:54:33.689Z,95659.15
2019-05-09T10:57:03.702Z,95659.15
2019-05-09T10:59:37.700Z,95658.28
2019-05-09T11:02:09.518Z,95663.31
2019-05-09T11:04:42.936Z,95665.55
2019-05-09T11:07:11.144Z,95665.55
2019-05-09T11:09:40.777Z,95661.45
2019-05-09T11:12:10.291Z,95670.48
2019-05-09T11:14:40.177Z,95669.91
2019-05-09T11:17:18.447Z,95669.91
2019-05-09T11:19:48.048Z,95661.81
2019-05-09T11:22:18.440Z,95661.81
2019-05-09T11:24:51.079Z,95666.93
2019-05-09T11:27:29.086Z,95658.42
2019-05-09T11:29:58.155Z,95658.42
2019-05-09T11:32:27.967Z,95665.41
2019-05-09T11:34:58.183Z,95669.20
2019-05-09T11:37:29.204Z,95669.20
2019-05-09T11:40:00.668Z,95679.73
2019-05-09T11:42:33.414Z,95679.73
2019-05-09T11:45:03.227Z,95679.85
2019-05-09T11:47:39.708Z,95684.55
2019-05-09T11:50:04.782Z,95689.80
2019-05-09T11:52:34.427Z,95699.43
2019-05-09T11:55:07.819Z,95699.43
2019-05-09T11:57:38.453Z,95698.06
2019-05-09T12:00:08.278Z,95698.06
2019-05-09T12:02:38.651Z,95696.12
2019-05-09T12:05:08.959Z,95695.91
2019-05-09T12:07:38.930Z,95702.07
2019-05-09T12:10:08.749Z,95702.07
2019-05-09T12:12:39.151Z,95696.09
2019-05-09T12:15:10.218Z,95703.09
2019-05-09T12:17:56.548Z,95703.09
2019-05-09T12:20:18.050Z,95698.72
2019-05-09T12:22:49.688Z,95700.25
2019-05-09T12:25:19.257Z,95700.25
2019-05-09T12:27:48.907Z,95706.73
2019-05-09T12:30:19.059Z,95701.45
2019-05-09T12:32:49.136Z,95706.41
2019-05-09T12:35:19.339Z,95706.41
2019-05-09T12:37:49.110Z,95710.37
2019-05-09T12:40:20.060Z,95705.70
2019-05-09T12:42:50.540Z,95705.70
2019-05-09T12:45:22.155Z,95710.14
2019-05-09T12:48:06.095Z,95714.30
2019-05-09T12:50:23.344Z,95714.30
2019-05-09T12:52:54.399Z,95723.34
2019-05-09T12:55:23.926Z,95729.73
2019-05-09T12:57:53.893Z,95729.21
2019-05-09T13:00:23.888Z,95729.21
2019-05-09T13:02:53.635Z,95727.08
2019-05-09T13:05:27.353Z,95722.44
2019-05-09T13:07:57.821Z,95733.22
2019-05-09T13:10:30.914Z,95733.22
2019-05-09T13:13:00.752Z,95729.78
2019-05-09T13:15:41.077Z,95729.78
2019-05-09T13:18:21.844Z,95731.64
2019-05-09T13:20:42.798Z,95733.63
2019-05-09T13:23:12.776Z,95733.63
2019-05-09T13:25:43.558Z,95735.45
2019-05-09T13:28:13.301Z,95735.45
2019-05-09T13:30:43.132Z,95738.45
2019-05-09T13:33:13.079Z,95738.56
2019-05-09T13:35:42.618Z,95743.86
2019-05-09T13:38:12.083Z,95747.78
2019-05-09T13:40:41.747Z,95753.48
2019-05-09T13:43:11.293Z,95758.67
2019-05-09T13:45:41.127Z,95760.50
2019-05-09T13:48:27.046Z,95767.06
2019-05-09T13:50:41.703Z,95768.19
2019-05-09T13:53:11.500Z,95761.23
2019-05-09T13:55:41.643Z,95761.23
2019-05-09T13:58:13.379Z,95758.66
2019-05-09T14:00:55.781Z,95762.33
2019-05-09T14:03:15.049Z,95762.33
2019-05-09T14:05:47.950Z,95771.39
2019-05-09T14:08:18.196Z,95771.39
2019-05-09T14:10:48.676Z,95772.92
2019-05-09T14:13:19.206Z,95780.69
2019-05-09T14:15:49.703Z,95780.69
2019-05-09T14:18:19.785Z,95774.77
2019-05-09T14:20:50.099Z,95773.86
2019-05-09T14:23:19.664Z,95773.86
2019-05-09T14:25:52.276Z,95784.77
2019-05-09T14:28:21.693Z,95789.33
2019-05-09T14:30:51.972Z,95794.63
2019-05-09T14:33:21.481Z,95796.51
2019-05-09T14:35:51.109Z,95792.96
2019-05-09T14:38:20.641Z,95788.40
2019-05-09T14:40:53.201Z,95788.40
2019-05-09T14:43:23.034Z,95797.95
2019-05-09T14:45:52.603Z,95804.48
2019-05-09T14:48:25.320Z,95808.23
2019-05-09T14:50:55.353Z,95808.23
2019-05-09T14:53:24.986Z,95812.61
2019-05-09T14:55:55.174Z,95814.36
2019-05-09T14:58:25.126Z,95808.20
2019-05-09T15:00:55.030Z,95813.48
2019-05-09T15:03:24.706Z,95813.48
2019-05-09T15:05:57.364Z,95814.83
2019-05-09T15:08:27.984Z,95822.66
2019-05-09T15:10:58.370Z,95832.02
2019-05-09T15:13:28.716Z,95830.91
2019-05-09T15:16:01.129Z,95837.45
2019-05-09T15:18:32.103Z,95837.45
2019-05-09T15:21:01.914Z,95844.72
2019-05-09T15:23:33.564Z,95844.72
2019-05-09T15:26:03.662Z,95848.91
2019-05-09T15:28:33.500Z,95848.91
2019-05-09T15:31:08.709Z,95855.31
2019-05-09T15:33:37.690Z,95851.66
2019-05-09T15:36:09.183Z,95852.72
2019-05-09T15:38:43.119Z,95848.05
2019-05-09T15:41:12.313Z,95846.01
2019-05-09T15:43:49.529Z,95846.01
2019-05-09T15:46:27.957Z,95841.09
2019-05-09T15:48:58.279Z,95844.66
2019-05-09T15:51:28.214Z,95844.66
2019-05-09T15:53:58.250Z,95848.59
2019-05-09T15:56:28.847Z,95848.59
2019-05-09T15:58:58.689Z,95846.89
2019-05-09T16:01:28.914Z,95846.89
2019-05-09T16:03:58.631Z,95845.80
2019-05-09T16:06:32.896Z,95850.42
2019-05-09T16:09:00.670Z,95850.42
2019-05-09T16:11:30.250Z,95852.38
2019-05-09T16:14:03.015Z,95853.72
2019-05-09T16:16:31.205Z,95855.98
2019-05-09T16:19:01.030Z,95856.66
2019-05-09T16:21:30.823Z,95856.66
2019-05-09T16:24:00.415Z,95857.39
2019-05-09T16:26:30.414Z,95863.68
2019-05-09T16:28:59.977Z,95863.68
2019-05-09T16:31:30.563Z,95872.45
2019-05-09T16:34:09.163Z,95879.22
2019-05-09T16:36:42.016Z,95879.22
2019-05-09T16:39:15.069Z,95878.47
2019-05-09T16:41:45.142Z,95884.38
2019-05-09T16:44:15.164Z,95878.98
2019-05-09T16:46:45.188Z,95878.98
2019-05-09T16:49:17.520Z,95876.59
2019-05-09T16:51:48.529Z,95879.19
2019-05-09T16:54:18.106Z,95883.70
2019-05-09T16:56:48.404Z,95880.23
2019-05-09T16:59:18.500Z,95886.07
2019-05-09T17:01:50.277Z,95888.77
2019-05-09T17:04:19.976Z,95893.25
2019-05-09T17:06:51.238Z,95900.42
2019-05-09T17:09:24.140Z,95901.04
2019-05-09T17:11:54.131Z,95903.25
2019-05-09T17:14:23.647Z,95904.77
2019-05-09T17:16:53.698Z,95904.77
2019-05-09T17:19:25.163Z,95912.69
2019-05-09T17:22:14.670Z,95912.69
2019-05-09T17:24:48.212Z,95917.00
2019-05-09T17:27:18.816Z,95917.00
2019-05-09T17:29:48.668Z,95913.23
2019-05-09T17:32:19.010Z,95918.84
2019-05-09T17:34:49.334Z,95921.33
2019-05-09T17:37:18.970Z,95928.94
2019-05-09T17:39:54.486Z,95929.36
2019-05-09T17:42:27.715Z,95938.80
2019-05-09T17:45:00.312Z,95938.80
2019-05-09T17:47:30.325Z,95939.80
2019-05-09T17:50:07.694Z,95940.95
2019-05-09T17:52:37.490Z,95945.18
2019-05-09T17:55:07.932Z,95945.18
2019-05-09T17:57:38.811Z,95950.45
2019-05-09T18:00:12.870Z,95951.80
2019-05-09T18:02:42.739Z,95950.11
2019-05-09T18:05:12.421Z,95950.11
2019-05-09T18:07:42.550Z,95954.69
2019-05-09T18:10:12.391Z,95954.69
2019-05-09T18:12:44.368Z,95958.19
2019-05-09T18:15:15.419Z,95963.97
2019-05-09T18:17:45.194Z,95963.97
2019-05-09T18:20:17.435Z,95965.50
2019-05-09T18:22:47.954Z,95965.50
2019-05-09T18:25:18.885Z,95962.68
2019-05-09T18:27:49.247Z,95978.39
2019-05-09T18:30:18.895Z,95977.19
2019-05-09T18:33:10.604Z,95977.19
2019-05-09T18:35:40.790Z,95983.05
2019-05-09T18:38:11.658Z,95999.45
2019-05-09T18:40:41.488Z,96007.18
2019-05-09T18:43:12.088Z,95999.76
2019-05-09T18:45:44.136Z,96001.98
2019-05-09T18:48:14.206Z,96003.37
2019-05-09T18:50:44.059Z,96003.37
2019-05-09T18:53:14.400Z,96006.13
2019-05-09T18:55:44.492Z,96009.00
2019-05-09T18:58:17.205Z,96008.52
2019-05-09T19:00:47.094Z,96022.22
2019-05-09T19:03:18.158Z,96018.50
2019-05-09T19:05:47.920Z,96018.50
2019-05-09T19:08:17.918Z,96028.12
2019-05-09T19:13:27.350Z,96026.63
2019-05-09T19:16:33.898Z,96035.80
2019-05-09T19:19:16.838Z,96035.80
2019-05-09T19:21:50.106Z,96071.16
2019-05-09T19:24:19.739Z,96088.50
2019-05-09T19:26:50.361Z,96088.50
2019-05-09T19:29:22.319Z,96093.84
2019-05-09T19:31:53.466Z,96095.97
2019-05-09T19:34:28.321Z,96098.95
2019-05-09T19:36:57.995Z,96098.95
2019-05-09T19:39:34.778Z,96111.63
2019-05-09T19:42:04.914Z,96111.75
2019-05-09T19:44:34.938Z,96111.75
2019-05-09T19:47:05.344Z,96118.89
2019-05-09T19:49:35.038Z,96126.92
2019-05-09T19:52:05.323Z,96120.53
2019-05-09T19:54:35.419Z,96120.53
2019-05-09T19:57:05.413Z,96121.00
2019-05-09T19:59:38.704Z,96121.00
2019-05-09T20:02:21.145Z,96121.84
2019-05-09T20:04:55.357Z,96137.50
2019-05-09T20:07:24.905Z,96137.50
2019-05-09T20:10:04.066Z,96137.14
2019-05-09T20:12:48.462Z,96143.19
2019-05-09T20:15:19.653Z,96148.89
2019-05-09T20:17:50.409Z,96153.91
2019-05-09T20:20:24.144Z,96152.24
2019-05-09T20:22:53.316Z,96154.91
2019-05-09T20:25:23.822Z,96161.28
2019-05-09T20:27:53.898Z,96165.16
2019-05-09T20:30:27.031Z,96165.16
2019-05-09T20:32:56.896Z,96172.54
2019-05-09T20:35:26.839Z,96178.06
2019-05-09T20:37:57.168Z,96187.94
2019-05-09T20:40:28.613Z,96188.11
2019-05-09T20:42:59.171Z,96197.63
2019-05-09T20:45:29.311Z,96191.11
2019-05-09T20:47:59.584Z,96191.79
2019-05-09T20:50:35.862Z,96191.79
2019-05-09T20:53:09.692Z,96192.45
2019-05-09T20:55:38.184Z,96210.72
2019-05-09T20:58:08.154Z,96213.06
2019-05-09T21:00:38.241Z,96213.06
2019-05-09T21:03:08.299Z,96219.24
2019-05-09T21:05:41.075Z,96223.60
2019-05-09T21:08:11.098Z,96223.60
2019-05-09T21:10:41.761Z,96228.12
2019-05-09T21:13:11.938Z,96228.61
2019-05-09T21:15:41.819Z,96228.61
2019-05-09T21:18:12.652Z,96237.63
2019-05-09T21:20:43.299Z,96237.67
2019-05-09T21:23:24.238Z,96237.67
2019-05-09T21:25:47.196Z,96252.05
2019-05-09T21:28:17.242Z,96253.03
2019-05-09T21:30:49.303Z,96253.03
2019-05-09T21:33:19.219Z,96253.72
2019-05-09T21:35:48.944Z,96259.41
2019-05-09T21:38:18.788Z,96263.95
2019-05-09T21:40:48.557Z,96263.95
2019-05-09T21:43:19.224Z,96266.62
2019-05-09T21:45:49.142Z,96265.27
2019-05-09T21:48:19.116Z,96267.13
2019-05-09T21:50:51.051Z,96275.64
2019-05-09T21:53:20.999Z,96278.17
2019-05-09T21:55:50.983Z,96275.16
2019-05-09T21:58:24.145Z,96275.16
2019-05-09T22:00:55.214Z,96275.66
2019-05-09T22:03:25.371Z,96281.02
2019-05-09T22:05:55.764Z,96281.02
2019-05-09T22:08:25.748Z,96283.52
2019-05-09T22:10:55.537Z,96282.17
2019-05-09T22:13:25.422Z,96281.86
2019-05-09T22:15:55.179Z,96281.86
2019-05-09T22:18:26.572Z,96280.03
2019-05-09T22:20:56.301Z,96291.19
2019-05-09T22:23:28.067Z,96291.19
2019-05-09T22:25:57.738Z,96289.87
2019-05-09T22:28:27.727Z,96296.55
2019-05-09T22:30:57.330Z,96296.55
2019-05-09T22:33:27.669Z,96298.89
2019-05-09T22:35:57.494Z,96301.91
2019-05-09T22:38:27.738Z,96303.09
2019-05-09T22:40:57.404Z,96303.09
2019-05-09T22:43:27.434Z,96309.28
2019-05-09T22:45:57.465Z,96309.28
2019-05-09T22:48:27.506Z,96311.64
2019-05-09T22:50:57.329Z,96311.64
2019-05-09T22:53:36.832Z,96312.31
2019-05-09T22:56:07.538Z,96312.31
2019-05-09T22:58:39.044Z,96307.44
2019-05-09T23:01:09.910Z,96316.34
2019-05-09T23:03:40.733Z,96320.99
2019-05-09T23:06:10.691Z,96323.33
2019-05-09T23:08:40.990Z,96312.94
2019-05-09T23:11:10.742Z,96312.94
2019-05-09T23:13:52.663Z,96323.31
2019-05-09T23:16:24.136Z,96319.00
2019-05-09T23:18:54.197Z,96319.00
2019-05-09T23:21:26.186Z,96319.36
2019-05-09T23:24:07.494Z,96324.51
2019-05-09T23:26:37.157Z,96324.53
2019-05-09T23:29:13.129Z,96324.53
2019-05-09T23:32:07.323Z,96322.49
2019-05-09T23:34:37.113Z,96327.03
2019-05-09T23:37:07.031Z,96327.87
2019-05-09T23:39:41.128Z,96327.30
2019-05-09T23:42:10.833Z,96327.30
2019-05-09T23:44:40.617Z,96332.03
2019-05-09T23:47:10.766Z,96327.33
2019-05-09T23:49:40.645Z,96326.95
2019-05-09T23:52:10.251Z,96321.48
2019-05-09T23:54:57.812Z,96330.63
2019-05-09T23:57:45.962Z,96328.61
